createdAt,value
2023-02-22T00:00:45.694Z,13.10
2023-02-22T00:01:45.702Z,11.90
2023-02-22T00:02:45.742Z,12.70
2023-02-22T00:03:45.663Z,13.50
2023-02-22T00:04:45.679Z,14.90
2023-02-22T00:05:45.633Z,12.90
2023-02-22T00:06:45.629Z,12.00
2023-02-22T00:07:45.653Z,12.60
2023-02-22T00:08:45.617Z,11.20
2023-02-22T00:09:45.598Z,10.50
2023-02-22T00:10:45.624Z,12.60
2023-02-22T00:11:45.584Z,10.50
2023-02-22T00:12:45.566Z,13.10
2023-02-22T00:13:45.575Z,11.00
2023-02-22T00:14:45.551Z,12.90
2023-02-22T00:15:45.556Z,11.80
2023-02-22T00:16:45.521Z,10.10
2023-02-22T00:17:45.534Z,11.20
2023-02-22T00:18:45.515Z,11.60
2023-02-22T00:19:45.511Z,12.20
2023-02-22T00:20:45.516Z,12.20
2023-02-22T00:21:45.491Z,12.10
2023-02-22T00:22:46.480Z,12.10
2023-02-22T00:23:45.473Z,12.30
2023-02-22T00:24:45.511Z,10.30
2023-02-22T00:25:45.446Z,10.00
2023-02-22T00:26:45.429Z,12.20
2023-02-22T00:27:45.437Z,11.70
2023-02-22T00:28:45.418Z,10.40
2023-02-22T00:29:46.446Z,12.40
2023-02-22T00:30:45.418Z,12.10
2023-02-22T00:31:45.530Z,11.90
2023-02-22T00:32:45.438Z,12.50
2023-02-22T00:33:45.365Z,12.40
2023-02-22T00:34:46.353Z,10.70
2023-02-22T00:35:45.346Z,14.00
2023-02-22T00:36:45.358Z,21.00
2023-02-22T00:37:45.327Z,21.50
2023-02-22T00:38:45.308Z,26.40
2023-02-22T00:39:45.316Z,22.80
2023-02-22T00:40:45.327Z,28.90
2023-02-22T00:41:45.346Z,23.20
2023-02-22T00:42:45.294Z,20.70
2023-02-22T00:43:45.264Z,16.00
2023-02-22T00:44:45.273Z,22.60
2023-02-22T00:45:45.319Z,17.10
2023-02-22T00:46:45.233Z,20.30
2023-02-22T00:47:45.244Z,20.80
2023-02-22T00:48:45.210Z,19.60
2023-02-22T00:49:45.193Z,26.60
2023-02-22T00:50:45.233Z,26.10
2023-02-22T00:51:45.218Z,24.60
2023-02-22T00:52:45.199Z,28.50
2023-02-22T00:53:45.198Z,23.10
2023-02-22T00:54:45.191Z,27.20
2023-02-22T00:55:45.190Z,29.90
2023-02-22T00:56:45.139Z,25.90
2023-02-22T00:57:45.134Z,24.20
2023-02-22T00:58:45.147Z,18.80
2023-02-22T00:59:45.112Z,20.30
2023-02-22T01:00:45.117Z,23.50
2023-02-22T01:01:45.116Z,22.90
2023-02-22T01:02:45.108Z,19.40
2023-02-22T01:03:45.067Z,19.10
2023-02-22T01:04:45.066Z,21.60
2023-02-22T01:05:45.081Z,20.40
2023-02-22T01:06:45.055Z,19.20
2023-02-22T01:07:45.028Z,15.80
2023-02-22T01:08:45.022Z,19.30
2023-02-22T01:09:45.044Z,19.60
2023-02-22T01:10:45.004Z,20.20
2023-02-22T01:11:44.996Z,23.60
2023-02-22T01:12:44.981Z,18.40
2023-02-22T01:13:44.997Z,17.90
2023-02-22T01:14:44.978Z,21.60
2023-02-22T01:15:45.049Z,24.40
2023-02-22T01:16:44.979Z,28.10
2023-02-22T01:17:44.927Z,34.10
2023-02-22T01:18:44.926Z,30.60
2023-02-22T01:19:44.916Z,42.30
2023-02-22T01:20:44.928Z,34.00
2023-02-22T01:21:44.892Z,36.00
2023-02-22T01:22:44.882Z,41.70
2023-02-22T01:23:44.861Z,33.30
2023-02-22T01:24:45.860Z,62.10
2023-02-22T01:25:44.863Z,50.50
2023-02-22T01:26:44.912Z,48.60
2023-02-22T01:27:44.844Z,72.70
2023-02-22T01:28:44.835Z,38.70
2023-02-22T01:29:44.824Z,56.60
2023-02-22T01:30:44.917Z,42.20
2023-02-22T01:31:44.810Z,43.30
2023-02-22T01:32:44.787Z,37.40
2023-02-22T01:33:44.789Z,60.80
2023-02-22T01:34:44.760Z,72.00
2023-02-22T01:35:44.784Z,74.60
2023-02-22T01:36:44.736Z,51.40
2023-02-22T01:37:44.724Z,74.60
2023-02-22T01:38:44.740Z,37.60
2023-02-22T01:39:44.725Z,53.10
2023-02-22T01:40:44.697Z,50.30
2023-02-22T01:41:44.705Z,53.70
2023-02-22T01:42:44.678Z,68.20
2023-02-22T01:43:44.712Z,69.00
2023-02-22T01:44:44.652Z,84.30
2023-02-22T01:45:44.701Z,76.80
2023-02-22T01:46:44.662Z,98.40
2023-02-22T01:47:44.625Z,85.10
2023-02-22T01:48:44.635Z,84.30
2023-02-22T01:49:44.612Z,86.60
2023-02-22T01:50:44.643Z,61.40
2023-02-22T01:51:44.604Z,81.20
2023-02-22T01:52:44.570Z,110.10
2023-02-22T01:53:44.569Z,72.30
2023-02-22T01:54:44.577Z,137.80
2023-02-22T01:55:44.588Z,128.10
2023-02-22T01:56:44.549Z,164.80
2023-02-22T01:57:44.541Z,157.70
2023-02-22T01:58:44.543Z,151.20
2023-02-22T01:59:44.531Z,63.40
2023-02-22T02:00:44.505Z,156.10
2023-02-22T02:01:44.499Z,106.20
2023-02-22T02:02:44.479Z,121.30
2023-02-22T02:03:44.492Z,121.10
2023-02-22T02:04:44.472Z,174.40
2023-02-22T02:05:44.439Z,226.80
2023-02-22T02:06:44.460Z,174.10
2023-02-22T02:07:44.439Z,197.90
2023-02-22T02:08:44.416Z,65.30
2023-02-22T02:09:44.410Z,112.60
2023-02-22T02:10:44.413Z,209.70
2023-02-22T02:11:44.405Z,133.40
2023-02-22T02:12:44.431Z,106.90
2023-02-22T02:13:44.375Z,200.50
2023-02-22T02:14:44.345Z,120.10
2023-02-22T02:15:44.365Z,79.00
2023-02-22T02:16:44.389Z,90.20
2023-02-22T02:17:44.334Z,71.30
2023-02-22T02:18:44.365Z,79.70
2023-02-22T02:19:44.370Z,143.00
2023-02-22T02:20:44.311Z,62.50
2023-02-22T02:21:44.292Z,111.00
2023-02-22T02:22:44.293Z,91.80
2023-02-22T02:23:44.264Z,71.60
2023-02-22T02:24:44.311Z,68.40
2023-02-22T02:25:44.258Z,46.70
2023-02-22T02:26:44.278Z,51.50
2023-02-22T02:27:44.455Z,59.10
2023-02-22T02:28:45.205Z,84.80
2023-02-22T02:29:44.237Z,73.90
2023-02-22T02:30:44.193Z,153.50
2023-02-22T02:31:44.328Z,91.40
2023-02-22T02:32:44.292Z,109.60
2023-02-22T02:33:44.162Z,113.80
2023-02-22T02:34:44.172Z,182.80
2023-02-22T02:35:44.152Z,93.50
2023-02-22T02:36:44.178Z,73.00
2023-02-22T02:37:44.135Z,84.20
2023-02-22T02:38:44.166Z,91.80
2023-02-22T02:39:44.102Z,68.60
2023-02-22T02:40:44.132Z,212.30
2023-02-22T02:41:44.124Z,180.30
2023-02-22T02:42:44.095Z,94.00
2023-02-22T02:43:44.070Z,84.10
2023-02-22T02:44:44.064Z,428.60
2023-02-22T02:45:44.081Z,255.00
2023-02-22T02:46:44.035Z,93.20
2023-02-22T02:47:44.034Z,220.10
2023-02-22T02:48:44.039Z,70.90
2023-02-22T02:49:44.014Z,62.90
2023-02-22T02:50:44.035Z,69.80
2023-02-22T02:51:44.000Z,43.70
2023-02-22T02:52:44.019Z,78.90
2023-02-22T02:53:43.960Z,56.20
2023-02-22T02:54:43.973Z,43.80
2023-02-22T02:55:43.946Z,62.90
2023-02-22T02:56:43.962Z,61.50
2023-02-22T02:57:43.949Z,66.40
2023-02-22T02:58:43.926Z,72.00
2023-02-22T02:59:43.917Z,48.60
2023-02-22T03:00:43.912Z,50.80
2023-02-22T03:01:43.931Z,72.20
2023-02-22T03:02:43.883Z,73.90
2023-02-22T03:03:43.869Z,73.70
2023-02-22T03:04:43.863Z,105.50
2023-02-22T03:05:43.882Z,134.80
2023-02-22T03:06:43.836Z,79.30
2023-02-22T03:07:43.891Z,98.00
2023-02-22T03:08:43.875Z,160.80
2023-02-22T03:09:43.823Z,123.50
2023-02-22T03:10:43.794Z,101.30
2023-02-22T03:11:44.828Z,161.90
2023-02-22T03:12:43.819Z,53.60
2023-02-22T03:13:43.795Z,83.80
2023-02-22T03:14:43.763Z,224.40
2023-02-22T03:15:43.758Z,162.10
2023-02-22T03:16:43.834Z,202.90
2023-02-22T03:17:43.763Z,197.60
2023-02-22T03:18:43.745Z,148.70
2023-02-22T03:19:43.741Z,123.10
2023-02-22T03:20:43.703Z,243.00
2023-02-22T03:21:43.735Z,223.10
2023-02-22T03:22:43.691Z,324.80
2023-02-22T03:23:43.678Z,118.00
2023-02-22T03:24:43.696Z,81.40
2023-02-22T03:25:43.666Z,287.00
2023-02-22T03:26:43.657Z,147.40
2023-02-22T03:27:43.837Z,47.70
2023-02-22T03:28:43.632Z,132.50
2023-02-22T03:29:43.671Z,240.90
2023-02-22T03:30:43.613Z,69.50
2023-02-22T03:31:43.606Z,99.70
2023-02-22T03:32:43.584Z,178.90
2023-02-22T03:33:43.593Z,141.70
2023-02-22T03:34:43.577Z,164.40
2023-02-22T03:35:43.577Z,117.10
2023-02-22T03:36:43.566Z,74.10
2023-02-22T03:37:43.545Z,140.30
2023-02-22T03:38:43.561Z,84.30
2023-02-22T03:39:43.539Z,36.30
2023-02-22T03:40:43.552Z,51.70
2023-02-22T03:41:43.522Z,46.40
2023-02-22T03:42:43.486Z,38.90
2023-02-22T03:43:43.467Z,49.70
2023-02-22T03:44:43.465Z,48.90
2023-02-22T03:45:43.532Z,51.30
2023-02-22T03:46:43.450Z,66.30
2023-02-22T03:47:43.465Z,45.20
2023-02-22T03:48:44.425Z,37.80
2023-02-22T03:49:43.430Z,38.20
2023-02-22T03:50:43.433Z,32.40
2023-02-22T03:51:43.471Z,28.60
2023-02-22T03:52:43.395Z,36.20
2023-02-22T03:53:43.383Z,34.40
2023-02-22T03:54:52.438Z,30.40
2023-02-22T03:55:43.352Z,53.00
2023-02-22T03:56:43.339Z,45.90
2023-02-22T03:57:43.343Z,28.80
2023-02-22T03:58:43.325Z,37.70
2023-02-22T03:59:43.309Z,56.00
2023-02-22T04:00:43.298Z,34.40
2023-02-22T04:01:43.289Z,38.40
2023-02-22T04:02:43.342Z,108.60
2023-02-22T04:03:43.251Z,39.70
2023-02-22T04:04:43.298Z,48.10
2023-02-22T04:05:43.272Z,39.80
2023-02-22T04:06:43.246Z,72.30
2023-02-22T04:07:43.262Z,73.50
2023-02-22T04:08:43.219Z,32.70
2023-02-22T04:09:43.198Z,50.40
2023-02-22T04:10:43.194Z,76.10
2023-02-22T04:11:43.186Z,49.30
2023-02-22T04:12:43.177Z,65.50
2023-02-22T04:13:43.192Z,103.70
2023-02-22T04:14:43.158Z,75.60
2023-02-22T04:15:43.197Z,149.80
2023-02-22T04:16:43.163Z,74.50
2023-02-22T04:17:43.128Z,88.90
2023-02-22T04:18:43.130Z,119.70
2023-02-22T04:19:43.121Z,92.80
2023-02-22T04:20:43.118Z,163.20
2023-02-22T04:21:43.089Z,163.00
2023-02-22T04:22:43.082Z,60.60
2023-02-22T04:23:43.073Z,51.30
2023-02-22T04:24:43.076Z,70.40
2023-02-22T04:25:43.074Z,107.80
2023-02-22T04:26:43.050Z,250.30
2023-02-22T04:27:43.026Z,206.30
2023-02-22T04:28:43.022Z,191.80
2023-02-22T04:29:43.010Z,260.70
2023-02-22T04:30:43.035Z,212.50
2023-02-22T04:31:43.077Z,213.10
2023-02-22T04:32:42.973Z,147.60
2023-02-22T04:33:42.984Z,140.10
2023-02-22T04:34:42.961Z,199.70
2023-02-22T04:35:42.942Z,104.60
2023-02-22T04:36:42.958Z,103.90
2023-02-22T04:37:42.924Z,40.50
2023-02-22T04:38:42.918Z,90.20
2023-02-22T04:39:42.944Z,82.90
2023-02-22T04:40:42.911Z,39.60
2023-02-22T04:41:42.912Z,43.40
2023-02-22T04:42:42.883Z,55.60
2023-02-22T04:43:42.868Z,115.20
2023-02-22T04:44:42.870Z,166.10
2023-02-22T04:45:42.852Z,148.10
2023-02-22T04:46:42.901Z,214.80
2023-02-22T04:47:42.827Z,121.80
2023-02-22T04:48:42.816Z,104.00
2023-02-22T04:49:42.813Z,76.40
2023-02-22T04:50:42.814Z,30.90
2023-02-22T04:51:42.812Z,41.80
2023-02-22T04:52:42.815Z,40.80
2023-02-22T04:53:42.778Z,286.80
2023-02-22T04:54:42.760Z,436.30
2023-02-22T04:55:42.753Z,341.70
2023-02-22T04:56:42.786Z,27.80
2023-02-22T04:57:42.734Z,35.10
2023-02-22T04:58:42.765Z,129.30
2023-02-22T04:59:42.706Z,175.30
2023-02-22T05:00:42.698Z,71.80
2023-02-22T05:01:42.693Z,103.80
2023-02-22T05:02:42.741Z,69.90
2023-02-22T05:03:42.670Z,202.50
2023-02-22T05:04:42.782Z,247.70
2023-02-22T05:05:42.663Z,53.50
2023-02-22T05:06:42.635Z,206.10
2023-02-22T05:07:42.657Z,297.30
2023-02-22T05:08:42.647Z,132.80
2023-02-22T05:09:42.612Z,156.60
2023-02-22T05:10:42.593Z,50.10
2023-02-22T05:11:42.595Z,96.40
2023-02-22T05:12:42.657Z,110.00
2023-02-22T05:13:42.568Z,39.90
2023-02-22T05:14:42.561Z,106.60
2023-02-22T05:15:42.594Z,87.50
2023-02-22T05:16:42.548Z,64.20
2023-02-22T05:17:42.525Z,319.40
2023-02-22T05:18:42.535Z,129.30
2023-02-22T05:19:42.514Z,321.90
2023-02-22T05:20:42.505Z,355.10
2023-02-22T05:21:42.481Z,213.50
2023-02-22T05:22:43.499Z,92.20
2023-02-22T05:23:43.486Z,50.20
2023-02-22T05:24:42.466Z,155.20
2023-02-22T05:25:42.453Z,153.80
2023-02-22T05:26:42.450Z,94.40
2023-02-22T05:27:42.429Z,70.90
2023-02-22T05:28:42.429Z,88.00
2023-02-22T05:29:43.420Z,108.20
2023-02-22T05:30:42.467Z,60.90
2023-02-22T05:31:42.583Z,55.70
2023-02-22T05:32:42.386Z,41.40
2023-02-22T05:33:42.379Z,52.00
2023-02-22T05:34:42.385Z,41.80
2023-02-22T05:35:42.359Z,62.10
2023-02-22T05:36:42.341Z,50.00
2023-02-22T05:37:42.332Z,50.60
2023-02-22T05:38:43.411Z,111.70
2023-02-22T05:39:42.326Z,67.20
2023-02-22T05:40:42.296Z,45.30
2023-02-22T05:41:42.299Z,128.70
2023-02-22T05:42:42.292Z,167.10
2023-02-22T05:43:42.297Z,424.40
2023-02-22T05:44:42.277Z,134.20
2023-02-22T05:45:42.264Z,224.20
2023-02-22T05:46:42.279Z,235.70
2023-02-22T05:47:42.254Z,135.30
2023-02-22T05:48:42.241Z,171.20
2023-02-22T05:49:42.222Z,284.30
2023-02-22T05:50:42.218Z,79.70
2023-02-22T05:51:42.200Z,82.30
2023-02-22T05:52:42.204Z,48.30
2023-02-22T05:53:42.199Z,69.00
2023-02-22T05:54:42.181Z,47.40
2023-02-22T05:55:42.166Z,44.80
2023-02-22T05:56:42.148Z,48.20
2023-02-22T05:57:42.180Z,84.60
2023-02-22T05:58:42.122Z,97.40
2023-02-22T05:59:42.116Z,80.50
2023-02-22T06:00:42.095Z,80.00
2023-02-22T06:01:42.142Z,55.30
2023-02-22T06:02:42.105Z,63.10
2023-02-22T06:03:42.088Z,54.70
2023-02-22T06:04:42.068Z,39.20
2023-02-22T06:05:42.143Z,46.10
2023-02-22T06:06:42.044Z,50.30
2023-02-22T06:07:42.032Z,102.60
2023-02-22T06:08:42.026Z,135.20
2023-02-22T06:09:42.011Z,155.40
2023-02-22T06:10:42.038Z,88.40
2023-02-22T06:11:42.015Z,110.30
2023-02-22T06:12:42.008Z,99.20
2023-02-22T06:13:41.970Z,60.70
2023-02-22T06:14:41.960Z,40.80
2023-02-22T06:15:42.002Z,61.70
2023-02-22T06:16:41.947Z,47.10
2023-02-22T06:17:41.951Z,49.30
2023-02-22T06:18:41.911Z,42.50
2023-02-22T06:19:41.929Z,74.30
2023-02-22T06:20:41.905Z,87.10
2023-02-22T06:21:41.906Z,84.10
2023-02-22T06:22:41.867Z,75.90
2023-02-22T06:23:42.917Z,99.80
2023-02-22T06:24:41.861Z,92.90
2023-02-22T06:25:41.859Z,86.60
2023-02-22T06:26:41.861Z,119.20
2023-02-22T06:27:41.826Z,56.90
2023-02-22T06:28:41.820Z,95.80
2023-02-22T06:29:41.816Z,108.50
2023-02-22T06:30:41.887Z,65.60
2023-02-22T06:31:41.999Z,83.50
2023-02-22T06:32:41.801Z,126.10
2023-02-22T06:33:41.769Z,162.00
2023-02-22T06:34:41.764Z,193.00
2023-02-22T06:35:41.753Z,68.30
2023-02-22T06:36:41.751Z,83.70
2023-02-22T06:37:41.743Z,57.50
2023-02-22T06:38:41.717Z,161.90
2023-02-22T06:39:41.722Z,61.40
2023-02-22T06:40:41.696Z,60.70
2023-02-22T06:41:41.693Z,168.70
2023-02-22T06:42:41.677Z,278.20
2023-02-22T06:43:41.694Z,390.00
2023-02-22T06:44:41.670Z,382.10
2023-02-22T06:45:41.696Z,410.30
2023-02-22T06:46:41.653Z,192.50
2023-02-22T06:47:41.634Z,86.80
2023-02-22T06:48:41.654Z,52.90
2023-02-22T06:49:41.610Z,36.90
2023-02-22T06:50:41.600Z,41.20
2023-02-22T06:51:41.595Z,50.10
2023-02-22T06:52:41.582Z,92.90
2023-02-22T06:53:41.595Z,73.90
2023-02-22T06:54:41.570Z,60.60
2023-02-22T06:55:41.556Z,86.10
2023-02-22T06:56:41.550Z,72.50
2023-02-22T06:57:41.523Z,74.70
2023-02-22T06:58:41.516Z,48.60
2023-02-22T06:59:41.521Z,56.00
2023-02-22T07:00:41.582Z,76.70
2023-02-22T07:01:41.499Z,228.10
2023-02-22T07:02:41.477Z,74.20
2023-02-22T07:03:41.524Z,80.70
2023-02-22T07:04:43.464Z,91.10
2023-02-22T07:05:42.453Z,54.40
2023-02-22T07:06:41.443Z,41.50
2023-02-22T07:07:41.433Z,59.80
2023-02-22T07:08:41.419Z,63.90
2023-02-22T07:09:41.408Z,66.90
2023-02-22T07:10:41.427Z,87.60
2023-02-22T07:11:41.404Z,161.90
2023-02-22T07:12:41.388Z,91.10
2023-02-22T07:13:41.372Z,38.20
2023-02-22T07:14:41.385Z,76.10
2023-02-22T07:15:41.365Z,50.00
2023-02-22T07:16:41.397Z,76.90
2023-02-22T07:17:41.336Z,80.00
2023-02-22T07:18:41.337Z,92.10
2023-02-22T07:19:41.311Z,62.10
2023-02-22T07:20:41.306Z,93.00
2023-02-22T07:21:41.286Z,58.70
2023-02-22T07:22:41.282Z,75.80
2023-02-22T07:23:41.295Z,47.50
2023-02-22T07:24:41.272Z,112.40
2023-02-22T07:25:41.252Z,81.00
2023-02-22T07:26:41.249Z,50.30
2023-02-22T07:27:41.241Z,97.70
2023-02-22T07:28:41.246Z,82.80
2023-02-22T07:29:41.218Z,108.50
2023-02-22T07:30:41.226Z,47.70
2023-02-22T07:31:41.207Z,56.50
2023-02-22T07:32:41.294Z,23.80
2023-02-22T07:33:41.190Z,21.60
2023-02-22T07:34:41.159Z,25.90
2023-02-22T07:35:41.184Z,21.80
2023-02-22T07:36:41.144Z,25.70
2023-02-22T07:37:41.130Z,21.10
2023-02-22T07:38:41.128Z,15.40
2023-02-22T07:39:41.129Z,17.90
2023-02-22T07:40:41.109Z,33.60
2023-02-22T07:41:41.094Z,16.90
2023-02-22T07:42:41.076Z,47.90
2023-02-22T07:43:41.088Z,20.90
2023-02-22T07:44:41.070Z,28.40
2023-02-22T07:45:41.068Z,37.90
2023-02-22T07:46:41.092Z,39.50
2023-02-22T07:47:41.036Z,62.30
2023-02-22T07:48:41.014Z,18.20
2023-02-22T07:49:41.007Z,23.80
2023-02-22T07:50:41.020Z,46.50
2023-02-22T07:51:40.990Z,65.20
2023-02-22T07:52:40.980Z,54.20
2023-02-22T07:53:40.989Z,73.30
2023-02-22T07:54:40.981Z,26.30
2023-02-22T07:55:40.957Z,51.30
2023-02-22T07:56:40.941Z,93.00
2023-02-22T07:57:40.946Z,46.20
2023-02-22T07:58:40.930Z,25.40
2023-02-22T07:59:40.939Z,23.40
2023-02-22T08:00:40.906Z,55.60
2023-02-22T08:01:40.895Z,42.30
2023-02-22T08:02:40.929Z,21.50
2023-02-22T08:03:40.925Z,135.60
2023-02-22T08:04:40.890Z,61.60
2023-02-22T08:05:40.852Z,23.40
2023-02-22T08:06:40.850Z,43.30
2023-02-22T08:07:40.837Z,18.00
2023-02-22T08:08:40.823Z,18.50
2023-02-22T08:09:40.879Z,14.70
2023-02-22T08:10:40.805Z,15.70
2023-02-22T08:11:41.794Z,15.10
2023-02-22T08:12:40.777Z,13.90
2023-02-22T08:13:40.781Z,19.00
2023-02-22T08:14:40.800Z,32.70
2023-02-22T08:15:40.775Z,36.00
2023-02-22T08:16:40.766Z,37.30
2023-02-22T08:17:40.746Z,68.80
2023-02-22T08:18:40.741Z,48.70
2023-02-22T08:19:40.713Z,22.80
2023-02-22T08:20:40.703Z,19.60
2023-02-22T08:21:40.706Z,30.60
2023-02-22T08:22:40.694Z,16.40
2023-02-22T08:23:40.718Z,14.70
2023-02-22T08:24:40.696Z,13.20
2023-02-22T08:25:40.651Z,17.10
2023-02-22T08:26:40.673Z,35.30
2023-02-22T08:27:40.635Z,32.30
2023-02-22T08:28:40.626Z,29.90
2023-02-22T08:29:40.658Z,43.90
2023-02-22T08:30:40.868Z,37.00
2023-02-22T08:31:40.645Z,25.90
2023-02-22T08:32:40.658Z,21.90
2023-02-22T08:33:40.571Z,32.70
2023-02-22T08:34:40.570Z,35.90
2023-02-22T08:35:40.564Z,53.70
2023-02-22T08:36:40.547Z,60.60
2023-02-22T08:37:40.552Z,66.70
2023-02-22T08:38:40.538Z,51.60
2023-02-22T08:39:40.520Z,53.50
2023-02-22T08:40:40.509Z,32.90
2023-02-22T08:41:40.528Z,76.90
2023-02-22T08:42:40.507Z,32.90
2023-02-22T08:43:40.518Z,55.60
2023-02-22T08:44:40.468Z,48.70
2023-02-22T08:45:40.485Z,34.70
2023-02-22T08:46:40.475Z,46.90
2023-02-22T08:47:40.462Z,54.80
2023-02-22T08:48:40.446Z,119.70
2023-02-22T08:49:40.423Z,35.80
2023-02-22T08:50:40.407Z,78.60
2023-02-22T08:51:40.392Z,68.90
2023-02-22T08:52:40.386Z,87.40
2023-02-22T08:53:40.386Z,51.10
2023-02-22T08:54:40.372Z,31.70
2023-02-22T08:55:40.402Z,34.20
2023-02-22T08:56:40.372Z,26.60
2023-02-22T08:57:40.342Z,43.60
2023-02-22T08:58:40.329Z,37.80
2023-02-22T08:59:40.326Z,25.10
2023-02-22T09:00:40.306Z,16.40
2023-02-22T09:01:40.412Z,16.10
2023-02-22T09:02:40.280Z,71.10
2023-02-22T09:03:40.337Z,19.30
2023-02-22T09:04:40.261Z,20.30
2023-02-22T09:05:40.274Z,24.20
2023-02-22T09:06:40.245Z,23.20
2023-02-22T09:07:40.288Z,28.30
2023-02-22T09:08:40.264Z,26.60
2023-02-22T09:09:40.222Z,29.90
2023-02-22T09:10:40.201Z,42.40
2023-02-22T09:11:40.189Z,39.20
2023-02-22T09:12:40.177Z,36.50
2023-02-22T09:13:40.196Z,29.50
2023-02-22T09:14:40.143Z,29.50
2023-02-22T09:15:40.168Z,33.70
2023-02-22T09:16:40.246Z,49.10
2023-02-22T09:17:40.136Z,37.50
2023-02-22T09:18:44.299Z,67.60
2023-02-22T09:19:41.126Z,30.20
2023-02-22T09:20:40.105Z,29.00
2023-02-22T09:21:40.149Z,23.10
2023-02-22T09:22:40.075Z,21.90
2023-02-22T09:23:40.062Z,28.00
2023-02-22T09:24:40.073Z,32.80
2023-02-22T09:25:40.046Z,20.40
2023-02-22T09:26:40.054Z,26.60
2023-02-22T09:27:40.031Z,22.70
2023-02-22T09:28:40.061Z,24.30
2023-02-22T09:29:40.045Z,16.10
2023-02-22T09:30:40.094Z,22.30
2023-02-22T09:31:40.102Z,13.30
2023-02-22T09:32:40.145Z,14.50
2023-02-22T09:33:39.989Z,19.50
2023-02-22T09:34:39.972Z,13.20
2023-02-22T09:35:39.947Z,10.40
2023-02-22T09:36:39.934Z,11.60
2023-02-22T09:37:39.979Z,8.80
2023-02-22T09:38:39.951Z,8.70
2023-02-22T09:39:39.944Z,8.10
2023-02-22T09:40:39.895Z,9.80
2023-02-22T09:41:39.906Z,8.10
2023-02-22T09:42:39.893Z,9.70
2023-02-22T09:43:39.896Z,7.50
2023-02-22T09:44:39.859Z,7.60
2023-02-22T09:45:39.845Z,8.20
2023-02-22T09:46:39.836Z,10.40
2023-02-22T09:47:39.856Z,9.10
2023-02-22T09:48:39.837Z,8.60
2023-02-22T09:49:39.827Z,10.50
2023-02-22T09:50:39.801Z,9.30
2023-02-22T09:51:39.796Z,8.00
2023-02-22T09:52:39.806Z,8.90
2023-02-22T09:53:39.759Z,9.00
2023-02-22T09:54:39.756Z,9.20
2023-02-22T09:56:11.666Z,8.80
2023-02-22T09:56:39.758Z,8.70
2023-02-22T09:57:39.756Z,7.20
2023-02-22T09:58:41.778Z,8.10
2023-02-22T09:59:40.726Z,9.30
2023-02-22T10:00:39.732Z,10.10
2023-02-22T10:01:39.708Z,10.20
2023-02-22T10:02:39.713Z,9.60
2023-02-22T10:03:39.741Z,10.00
2023-02-22T10:04:39.664Z,9.50
2023-02-22T10:05:39.759Z,9.00
2023-02-22T10:06:39.677Z,11.40
2023-02-22T10:07:39.659Z,9.60
2023-02-22T10:08:39.659Z,10.20
2023-02-22T10:09:39.632Z,10.40
2023-02-22T10:10:39.621Z,10.70
2023-02-22T10:11:39.611Z,10.30
2023-02-22T10:12:40.603Z,10.20
2023-02-22T10:13:39.588Z,8.20
2023-02-22T10:14:39.599Z,9.30
2023-02-22T10:15:39.587Z,8.80
2023-02-22T10:16:39.603Z,9.10
2023-02-22T10:17:39.539Z,8.10
2023-02-22T10:18:39.546Z,9.40
2023-02-22T10:19:39.559Z,7.40
2023-02-22T10:20:39.567Z,8.20
2023-02-22T10:21:39.530Z,8.50
2023-02-22T10:22:39.553Z,7.90
2023-02-22T10:23:39.530Z,7.90
2023-02-22T10:24:39.512Z,7.00
2023-02-22T10:25:39.548Z,9.20
2023-02-22T10:26:39.467Z,8.20
2023-02-22T10:27:39.482Z,8.10
2023-02-22T10:28:39.444Z,8.10
2023-02-22T10:29:39.471Z,8.60
2023-02-22T10:30:39.494Z,8.70
2023-02-22T10:31:39.526Z,8.80
2023-02-22T10:32:39.428Z,10.40
2023-02-22T10:33:39.414Z,8.30
2023-02-22T10:34:39.391Z,8.80
2023-02-22T10:35:39.380Z,8.30
2023-02-22T10:36:39.393Z,9.20
2023-02-22T10:37:39.415Z,9.20
2023-02-22T10:38:39.343Z,8.60
2023-02-22T10:39:39.357Z,8.20
2023-02-22T10:40:39.347Z,8.70
2023-02-22T10:41:39.324Z,8.90
2023-02-22T10:42:39.382Z,9.60
2023-02-22T10:43:39.322Z,9.70
2023-02-22T10:44:39.309Z,9.90
2023-02-22T10:45:39.353Z,11.20
2023-02-22T10:46:39.292Z,10.00
2023-02-22T10:47:39.253Z,10.40
2023-02-22T10:48:39.276Z,10.90
2023-02-22T10:49:39.222Z,10.50
2023-02-22T10:50:39.235Z,9.20
2023-02-22T10:51:39.276Z,10.90
2023-02-22T10:52:39.199Z,9.50
2023-02-22T10:53:39.210Z,10.60
2023-02-22T10:54:39.198Z,11.10
2023-02-22T10:55:39.224Z,10.60
2023-02-22T10:56:39.178Z,11.70
2023-02-22T10:57:39.182Z,10.90
2023-02-22T10:58:39.149Z,9.00
2023-02-22T10:59:39.136Z,10.20
2023-02-22T11:00:39.182Z,9.50
2023-02-22T11:01:39.161Z,9.90
2023-02-22T11:02:39.104Z,9.80
2023-02-22T11:03:39.105Z,9.80
2023-02-22T11:04:39.092Z,9.70
2023-02-22T11:05:39.072Z,10.90
2023-02-22T11:06:39.057Z,10.70
2023-02-22T11:07:39.037Z,8.90
2023-02-22T11:08:39.045Z,9.00
2023-02-22T11:09:39.022Z,10.90
2023-02-22T11:10:39.088Z,9.20
2023-02-22T11:11:39.014Z,9.20
2023-02-22T11:12:39.010Z,10.40
2023-02-22T11:13:39.021Z,10.60
2023-02-22T11:14:39.003Z,10.00
2023-02-22T11:15:38.983Z,12.00
2023-02-22T11:16:39.000Z,11.30
2023-02-22T11:17:38.959Z,10.60
2023-02-22T11:18:38.976Z,10.20
2023-02-22T11:19:38.956Z,11.50
2023-02-22T11:20:38.927Z,10.00
2023-02-22T11:21:38.989Z,10.30
2023-02-22T11:22:38.922Z,10.20
2023-02-22T11:23:38.930Z,9.70
2023-02-22T11:24:48.679Z,9.20
2023-02-22T11:25:39.874Z,10.80
2023-02-22T11:26:38.850Z,10.10
2023-02-22T11:27:38.883Z,11.00
2023-02-22T11:28:38.894Z,10.20
2023-02-22T11:29:38.855Z,10.40
2023-02-22T11:30:38.940Z,11.50
2023-02-22T11:31:38.929Z,11.70
2023-02-22T11:32:38.871Z,10.00
2023-02-22T11:33:38.820Z,10.10
2023-02-22T11:34:38.807Z,11.20
2023-02-22T11:35:38.784Z,10.30
2023-02-22T11:36:38.761Z,11.00
2023-02-22T11:37:38.787Z,11.10
2023-02-22T11:38:38.731Z,11.50
2023-02-22T11:39:38.836Z,10.80
2023-02-22T11:40:38.752Z,11.70
2023-02-22T11:41:38.744Z,12.20
2023-02-22T11:42:38.709Z,10.50
2023-02-22T11:43:38.706Z,10.60
2023-02-22T11:44:38.690Z,10.00
2023-02-22T11:45:44.153Z,12.00
2023-02-22T11:46:40.683Z,11.90
2023-02-22T11:47:38.648Z,10.50
2023-02-22T11:48:38.649Z,11.20
2023-02-22T11:49:38.663Z,11.00
2023-02-22T11:50:50.585Z,11.10
2023-02-22T11:51:41.650Z,11.30
2023-02-22T11:52:38.616Z,11.50
2023-02-22T11:53:38.607Z,12.80
2023-02-22T11:54:38.578Z,11.00
2023-02-22T11:55:43.284Z,10.70
2023-02-22T11:56:40.069Z,12.90
2023-02-22T11:57:38.563Z,10.90
2023-02-22T11:58:38.538Z,11.40
2023-02-22T11:59:38.577Z,10.90
2023-02-22T12:00:38.531Z,11.30
2023-02-22T12:01:38.561Z,10.70
2023-02-22T12:02:41.682Z,11.40
2023-02-22T12:03:39.526Z,11.70
2023-02-22T12:04:39.888Z,13.80
2023-02-22T12:05:38.462Z,9.90
2023-02-22T12:06:38.463Z,9.60
2023-02-22T12:07:38.469Z,9.60
2023-02-22T12:08:38.469Z,9.90
2023-02-22T12:09:38.446Z,11.50
2023-02-22T12:10:38.423Z,10.50
2023-02-22T12:11:38.401Z,8.60
2023-02-22T12:12:38.418Z,9.10
2023-02-22T12:13:38.384Z,8.20
2023-02-22T12:14:38.415Z,8.80
2023-02-22T12:15:38.437Z,8.20
2023-02-22T12:17:10.655Z,8.80
2023-02-22T12:17:58.070Z,9.60
2023-02-22T12:18:39.337Z,8.30
2023-02-22T12:19:39.378Z,8.90
2023-02-22T12:20:38.330Z,7.50
2023-02-22T12:21:38.331Z,9.30
2023-02-22T12:22:38.299Z,8.60
2023-02-22T12:23:38.290Z,8.10
2023-02-22T12:24:38.322Z,8.60
2023-02-22T12:25:38.264Z,8.60
2023-02-22T12:26:38.254Z,8.10
2023-02-22T12:27:38.261Z,8.10
2023-02-22T12:28:38.308Z,7.90
2023-02-22T12:29:38.266Z,8.10
2023-02-22T12:30:38.257Z,8.70
2023-02-22T12:31:38.352Z,8.40
2023-02-22T12:32:38.265Z,8.70
2023-02-22T12:33:38.244Z,8.60
2023-02-22T12:34:38.404Z,12.00
2023-02-22T12:35:38.183Z,8.00
2023-02-22T12:36:39.165Z,8.60
2023-02-22T12:37:38.163Z,8.00
2023-02-22T12:38:38.156Z,8.50
2023-02-22T12:39:51.784Z,7.90
2023-02-22T12:40:39.174Z,8.20
2023-02-22T12:41:38.154Z,10.00
2023-02-22T12:42:38.129Z,8.40
2023-02-22T12:43:38.136Z,8.00
2023-02-22T12:44:38.120Z,7.60
2023-02-22T12:45:38.059Z,7.90
2023-02-22T12:46:38.207Z,8.40
2023-02-22T12:47:38.062Z,8.20
2023-02-22T12:48:38.064Z,8.10
2023-02-22T12:49:38.053Z,9.70
2023-02-22T12:50:38.051Z,8.60
2023-02-22T12:51:38.034Z,7.70
2023-02-22T12:52:38.031Z,9.90